createdAt,value
2023-01-03T00:00:28.685Z,101359.19
2023-01-03T00:02:31.881Z,101360.00
2023-01-03T00:04:35.351Z,101359.25
2023-01-03T00:06:41.339Z,101360.13
2023-01-03T00:08:44.960Z,101346.97
2023-01-03T00:10:48.142Z,101357.56
2023-01-03T00:12:50.124Z,101350.56
2023-01-03T00:14:53.380Z,101359.25
2023-01-03T00:16:59.331Z,101360.09
2023-01-03T00:19:07.107Z,101359.25
2023-01-03T00:21:10.093Z,101361.00
2023-01-03T00:23:13.082Z,101360.94
2023-01-03T00:25:16.687Z,101363.50
2023-01-03T00:27:20.152Z,101356.53
2023-01-03T00:29:23.195Z,101361.72
2023-01-03T00:31:26.660Z,101358.25
2023-01-03T00:33:30.867Z,101356.63
2023-01-03T00:35:34.296Z,101358.31
2023-01-03T00:37:37.263Z,101360.13
2023-01-03T00:39:40.210Z,101357.50
2023-01-03T00:41:43.187Z,101360.97
2023-01-03T00:43:49.095Z,101358.44
2023-01-03T00:45:52.099Z,101362.06
2023-01-03T00:47:55.070Z,101364.63
2023-01-03T00:49:59.435Z,101376.09
2023-01-03T00:52:03.972Z,101368.16
2023-01-03T00:54:08.154Z,101370.84
2023-01-03T00:56:13.666Z,101373.59
2023-01-03T00:58:16.920Z,101377.13
2023-01-03T01:00:19.843Z,101373.72
2023-01-03T01:02:22.883Z,101373.63
2023-01-03T01:04:28.837Z,101375.41
2023-01-03T01:06:35.056Z,101376.34
2023-01-03T01:08:38.005Z,101381.63
2023-01-03T01:11:01.697Z,101383.41
2023-01-03T01:13:04.874Z,101388.69
2023-01-03T01:15:08.761Z,101392.16
2023-01-03T01:17:16.577Z,101396.69
2023-01-03T01:19:23.849Z,101392.19
2023-01-03T01:21:28.615Z,101398.38
2023-01-03T01:23:33.305Z,101402.78
2023-01-03T01:25:36.139Z,101406.34
2023-01-03T01:27:39.141Z,101402.84
2023-01-03T01:29:42.515Z,101409.03
2023-01-03T01:31:46.586Z,101405.53
2023-01-03T01:33:50.329Z,101409.84
2023-01-03T01:35:53.191Z,101412.41
2023-01-03T01:37:56.039Z,101411.63
2023-01-03T01:40:03.329Z,101413.28
2023-01-03T01:42:30.744Z,101420.22
2023-01-03T01:44:53.341Z,101421.09
2023-01-03T01:46:56.379Z,101425.50
2023-01-03T01:49:02.774Z,101420.22
2023-01-03T01:51:05.745Z,101429.84
2023-01-03T01:53:11.612Z,101434.28
2023-01-03T01:55:20.038Z,101434.28
2023-01-03T01:57:25.176Z,101429.94
2023-01-03T01:59:28.768Z,101441.31
2023-01-03T02:01:32.245Z,101444.03
2023-01-03T02:03:35.265Z,101446.59
2023-01-03T02:05:40.735Z,101445.66
2023-01-03T02:07:43.955Z,101448.31
2023-01-03T02:09:47.992Z,101457.94
2023-01-03T02:12:11.703Z,101457.06
2023-01-03T02:14:31.545Z,101459.75
2023-01-03T02:16:50.556Z,101466.81
2023-01-03T02:18:58.129Z,101467.78
2023-01-03T02:21:30.992Z,101464.22
2023-01-03T02:24:12.689Z,101467.72
2023-01-03T02:26:32.726Z,101457.25
2023-01-03T02:29:16.581Z,101459.81
2023-01-03T02:31:25.477Z,101461.66
2023-01-03T02:33:32.723Z,101449.34
2023-01-03T02:35:39.707Z,101448.47
2023-01-03T02:37:45.621Z,101464.31
2023-01-03T02:39:53.104Z,101468.75
2023-01-03T02:42:17.784Z,101465.13
2023-01-03T02:44:27.193Z,101466.84
2023-01-03T02:46:35.002Z,101466.00
2023-01-03T02:48:48.012Z,101471.22
2023-01-03T02:50:53.552Z,101462.41
2023-01-03T02:53:00.543Z,101474.63
2023-01-03T02:55:06.656Z,101464.09
2023-01-03T02:57:12.376Z,101465.81
2023-01-03T02:59:16.996Z,101474.50
2023-01-03T03:01:20.473Z,101475.44
2023-01-03T03:03:27.604Z,101469.25
2023-01-03T03:05:35.463Z,101470.19
2023-01-03T03:07:40.941Z,101470.22
2023-01-03T03:09:57.689Z,101462.34
2023-01-03T03:12:20.192Z,101465.88
2023-01-03T03:14:26.696Z,101474.66
2023-01-03T03:16:48.668Z,101472.81
2023-01-03T03:18:59.717Z,101484.34
2023-01-03T03:21:21.319Z,101479.88
2023-01-03T03:23:45.887Z,101476.44
2023-01-03T03:25:51.250Z,101476.41
2023-01-03T03:28:14.224Z,101476.47
2023-01-03T03:30:19.626Z,101472.94
2023-01-03T03:32:22.956Z,101469.34
2023-01-03T03:34:29.128Z,101471.09
2023-01-03T03:36:36.764Z,101481.59
2023-01-03T03:38:40.946Z,101474.56
2023-01-03T03:41:08.360Z,101474.50
2023-01-03T03:43:34.988Z,101478.09
2023-01-03T03:45:41.899Z,101480.66
2023-01-03T03:47:48.618Z,101485.13
2023-01-03T03:49:54.412Z,101480.81
2023-01-03T03:51:58.710Z,101480.81
2023-01-03T03:54:03.669Z,101482.59
2023-01-03T03:56:09.814Z,101483.38
2023-01-03T03:58:16.649Z,101479.88
2023-01-03T04:00:23.407Z,101480.75
2023-01-03T04:02:27.595Z,101481.69
2023-01-03T04:04:34.752Z,101478.06
2023-01-03T04:06:43.227Z,101479.88
2023-01-03T04:08:46.101Z,101481.72
2023-01-03T04:10:49.288Z,101481.72
2023-01-03T04:12:53.302Z,101485.19
2023-01-03T04:14:56.183Z,101478.25
2023-01-03T04:16:59.148Z,101474.69
2023-01-03T04:19:02.415Z,101491.34
2023-01-03T04:21:05.501Z,101485.31
2023-01-03T04:23:09.757Z,101491.47
2023-01-03T04:25:12.606Z,101490.59
2023-01-03T04:27:15.516Z,101490.72
2023-01-03T04:29:18.376Z,101493.34
2023-01-03T04:31:21.254Z,101490.78
2023-01-03T04:33:24.212Z,101493.41
2023-01-03T04:35:27.007Z,101490.84
2023-01-03T04:37:29.950Z,101494.38
2023-01-03T04:39:34.107Z,101500.53
2023-01-03T04:41:37.167Z,101499.69
2023-01-03T04:43:57.833Z,101496.13
2023-01-03T04:46:01.097Z,101494.47
2023-01-03T04:48:04.191Z,101492.72
2023-01-03T04:50:07.957Z,101493.56
2023-01-03T04:52:10.831Z,101498.84
2023-01-03T04:54:13.716Z,101497.97
2023-01-03T04:56:18.053Z,101503.22
2023-01-03T04:58:21.381Z,101505.00
2023-01-03T05:00:24.233Z,101505.03
2023-01-03T05:02:27.441Z,101503.28
2023-01-03T05:04:30.452Z,101502.44
2023-01-03T05:06:33.460Z,101509.44
2023-01-03T05:08:36.697Z,101507.69
2023-01-03T05:10:40.414Z,101501.59
2023-01-03T05:12:59.697Z,101510.31
2023-01-03T05:15:02.630Z,101512.94
2023-01-03T05:17:05.604Z,101518.19
2023-01-03T05:19:08.512Z,101519.94
2023-01-03T05:21:32.976Z,101525.16
2023-01-03T05:23:53.360Z,101516.44
2023-01-03T05:25:56.279Z,101517.28
2023-01-03T05:28:01.542Z,101526.91
2023-01-03T05:30:04.814Z,101522.53
2023-01-03T05:32:07.773Z,101517.28
2023-01-03T05:34:10.625Z,101520.75
2023-01-03T05:36:13.484Z,101524.28
2023-01-03T05:38:16.454Z,101514.69
2023-01-03T05:40:19.400Z,101530.41
2023-01-03T05:42:22.218Z,101528.66
2023-01-03T05:44:26.457Z,101526.06
2023-01-03T05:46:29.350Z,101536.53
2023-01-03T05:48:32.298Z,101524.28
2023-01-03T05:50:35.799Z,101526.84
2023-01-03T05:52:38.671Z,101528.59
2023-01-03T05:54:41.552Z,101525.94
2023-01-03T05:56:44.593Z,101529.44
2023-01-03T05:58:47.515Z,101532.09
2023-01-03T06:00:51.828Z,101530.28
2023-01-03T06:02:54.653Z,101531.25
2023-01-03T06:04:57.575Z,101532.94
2023-01-03T06:07:00.425Z,101530.28
2023-01-03T06:09:03.698Z,101527.69
2023-01-03T06:11:07.156Z,101528.53
2023-01-03T06:13:10.445Z,101530.31
2023-01-03T06:15:13.299Z,101525.06
2023-01-03T06:17:34.924Z,101529.44
2023-01-03T06:19:37.782Z,101522.44
2023-01-03T06:21:42.086Z,101526.81
2023-01-03T06:23:47.523Z,101522.47
2023-01-03T06:25:50.327Z,101525.09
2023-01-03T06:27:53.210Z,101524.22
2023-01-03T06:29:56.106Z,101525.13
2023-01-03T06:32:03.548Z,101525.97
2023-01-03T06:34:11.276Z,101526.88
2023-01-03T06:36:16.194Z,101522.50
2023-01-03T06:38:19.023Z,101524.28
2023-01-03T06:40:21.982Z,101523.38
2023-01-03T06:42:43.063Z,101522.50
2023-01-03T06:45:06.470Z,101524.25
2023-01-03T06:47:27.447Z,101524.25
2023-01-03T06:50:00.634Z,101526.84
2023-01-03T06:52:21.996Z,101531.25
2023-01-03T06:54:26.973Z,101525.09
2023-01-03T06:56:29.820Z,101533.81
2023-01-03T06:58:33.387Z,101532.94
2023-01-03T07:00:37.036Z,101532.94
2023-01-03T07:02:40.502Z,101534.72
2023-01-03T07:04:44.922Z,101528.56
2023-01-03T07:06:48.019Z,101530.31
2023-01-03T07:08:51.496Z,101528.53
2023-01-03T07:10:55.425Z,101531.16
2023-01-03T07:13:19.050Z,101530.25
2023-01-03T07:15:23.188Z,101540.72
2023-01-03T07:17:26.122Z,101534.59
2023-01-03T07:19:28.971Z,101532.84
2023-01-03T07:21:34.343Z,101540.66
2023-01-03T07:23:37.418Z,101536.25
2023-01-03T07:25:41.688Z,101534.53
2023-01-03T07:27:44.688Z,101540.63
2023-01-03T07:29:47.655Z,101538.88
2023-01-03T07:31:50.612Z,101538.84
2023-01-03T07:33:54.106Z,101544.09
2023-01-03T07:36:03.614Z,101545.84
2023-01-03T07:38:13.766Z,101551.94
2023-01-03T07:40:16.757Z,101558.09
2023-01-03T07:42:37.311Z,101555.44
2023-01-03T07:44:40.146Z,101550.19
2023-01-03T07:46:43.188Z,101555.41
2023-01-03T07:48:47.550Z,101553.69
2023-01-03T07:50:50.453Z,101550.16
2023-01-03T07:52:53.459Z,101557.13
2023-01-03T07:54:57.734Z,101558.94
2023-01-03T07:57:00.576Z,101549.25
2023-01-03T07:59:03.588Z,101537.06
2023-01-03T08:01:07.981Z,101548.38
2023-01-03T08:03:12.010Z,101544.88
2023-01-03T08:05:15.322Z,101550.13
2023-01-03T08:07:18.225Z,101546.63
2023-01-03T08:09:38.834Z,101547.47
2023-01-03T08:12:15.260Z,101547.47
2023-01-03T08:14:23.616Z,101544.00
2023-01-03T08:20:03.787Z,101544.69
2023-01-03T08:22:06.817Z,101552.63
2023-01-03T08:24:09.839Z,101543.84
2023-01-03T08:26:14.188Z,101533.38
2023-01-03T08:28:19.460Z,101536.81
2023-01-03T08:30:23.901Z,101540.28
2023-01-03T08:32:27.106Z,101533.34
2023-01-03T08:34:32.830Z,101534.22
2023-01-03T08:36:40.988Z,101533.31
2023-01-03T08:38:46.079Z,101530.69
2023-01-03T08:40:49.178Z,101532.44
2023-01-03T08:42:51.989Z,101534.06
2023-01-03T08:44:59.393Z,101534.91
2023-01-03T08:47:04.296Z,101534.81
2023-01-03T08:49:07.359Z,101539.06
2023-01-03T08:51:10.705Z,101526.63
2023-01-03T08:53:13.764Z,101530.94
2023-01-03T08:55:16.773Z,101534.34
2023-01-03T08:57:19.716Z,101540.47
2023-01-03T08:59:22.521Z,101532.41
2023-01-03T09:01:26.974Z,101527.00
2023-01-03T09:03:30.129Z,101524.34
2023-01-03T09:05:33.527Z,101528.53
2023-01-03T09:07:36.477Z,101519.78
2023-01-03T09:09:39.509Z,101525.06
2023-01-03T09:11:42.435Z,101534.47
2023-01-03T09:13:45.285Z,101529.22
2023-01-03T09:15:48.192Z,101529.00
2023-01-03T09:17:52.401Z,101529.91
2023-01-03T09:19:55.215Z,101537.84
2023-01-03T09:21:58.152Z,101527.25
2023-01-03T09:24:01.097Z,101543.25
2023-01-03T09:26:04.526Z,101532.69
2023-01-03T09:28:07.404Z,101535.00
2023-01-03T09:30:11.303Z,101533.88
2023-01-03T09:32:14.146Z,101528.69
2023-01-03T09:34:18.780Z,101531.13
2023-01-03T09:36:21.749Z,101525.72
2023-01-03T09:38:24.775Z,101530.84
2023-01-03T09:40:27.655Z,101528.72
2023-01-03T09:42:48.214Z,101529.59
2023-01-03T09:44:51.140Z,101526.75
2023-01-03T09:46:54.123Z,101518.56
2023-01-03T09:48:58.732Z,101514.53
2023-01-03T09:51:19.709Z,101520.66
2023-01-03T09:53:47.950Z,101504.91
2023-01-03T09:56:21.643Z,101512.69
2023-01-03T09:58:41.913Z,101518.75
2023-01-03T10:01:06.877Z,101519.31
2023-01-03T10:03:38.057Z,101525.41
2023-01-03T10:05:56.385Z,101536.00
2023-01-03T10:08:14.165Z,101532.44
2023-01-03T10:10:19.545Z,101534.88
2023-01-03T10:12:29.294Z,101531.50
2023-01-03T10:14:43.019Z,101537.44
2023-01-03T10:16:52.843Z,101529.72
2023-01-03T10:19:07.100Z,101534.09
2023-01-03T10:21:16.978Z,101540.19
2023-01-03T10:23:21.487Z,101534.56
2023-01-03T10:25:25.222Z,101529.13
2023-01-03T10:27:31.034Z,101534.38
2023-01-03T10:29:34.073Z,101527.22
2023-01-03T10:31:44.901Z,101521.38
2023-01-03T10:33:48.696Z,101531.66
2023-01-03T10:35:52.192Z,101532.34
2023-01-03T10:37:56.483Z,101529.53
2023-01-03T10:40:04.582Z,101524.19
2023-01-03T10:42:07.374Z,101530.94
2023-01-03T10:44:24.766Z,101522.25
2023-01-03T10:46:29.860Z,101524.34
2023-01-03T10:49:00.442Z,101525.56
2023-01-03T10:51:01.649Z,101519.06
2023-01-03T10:53:07.466Z,101523.44
2023-01-03T10:55:16.050Z,101514.44
2023-01-03T10:57:37.223Z,101506.22
2023-01-03T10:59:50.167Z,101507.13
2023-01-03T11:02:04.038Z,101501.84
2023-01-03T11:04:15.622Z,101496.91
2023-01-03T11:06:18.850Z,101492.78
2023-01-03T11:08:23.730Z,101498.22
2023-01-03T11:10:35.514Z,101504.38
2023-01-03T11:12:40.542Z,101499.72
2023-01-03T11:14:51.374Z,101504.28
2023-01-03T11:16:56.166Z,101494.03
2023-01-03T11:19:01.640Z,101500.59
2023-01-03T11:21:10.835Z,101493.63
2023-01-03T11:23:18.081Z,101497.72
2023-01-03T11:25:35.211Z,101499.06
2023-01-03T11:27:53.928Z,101496.72
2023-01-03T11:30:18.996Z,101489.13
2023-01-03T11:32:26.271Z,101482.72
2023-01-03T11:35:20.096Z,101490.81
2023-01-03T11:37:08.006Z,101481.88
2023-01-03T11:39:26.815Z,101492.84
2023-01-03T11:41:47.657Z,101475.25
2023-01-03T11:44:01.510Z,101476.50
2023-01-03T11:46:18.822Z,101484.31
2023-01-03T11:48:52.424Z,101473.28
2023-01-03T11:50:58.358Z,101474.81
2023-01-03T11:53:04.101Z,101471.19
2023-01-03T11:55:32.597Z,101480.34
2023-01-03T11:57:41.645Z,101464.53
2023-01-03T11:59:52.158Z,101467.75
2023-01-03T12:02:13.682Z,101477.78
2023-01-03T12:04:25.467Z,101483.69
2023-01-03T12:06:32.872Z,101459.84
2023-01-03T12:08:49.897Z,101464.69
2023-01-03T12:10:56.865Z,101460.38
2023-01-03T12:13:20.501Z,101453.63
2023-01-03T12:15:29.754Z,101452.28
2023-01-03T12:17:40.522Z,101453.25
2023-01-03T12:19:44.872Z,101465.63
2023-01-03T12:21:49.821Z,101472.03
2023-01-03T12:23:58.198Z,101462.94
2023-01-03T12:26:03.664Z,101463.53
2023-01-03T12:28:13.773Z,101458.19
2023-01-03T12:30:27.895Z,101466.38
2023-01-03T12:32:35.601Z,101455.56
2023-01-03T12:34:41.085Z,101452.03
2023-01-03T12:36:50.017Z,101455.78
2023-01-03T12:38:59.725Z,101464.81
2023-01-03T12:41:09.203Z,101452.44
2023-01-03T12:43:14.131Z,101454.94
2023-01-03T12:45:34.483Z,101450.59
2023-01-03T12:47:43.348Z,101435.69
2023-01-03T12:49:51.486Z,101444.44
2023-01-03T12:51:54.408Z,101443.41
2023-01-03T12:54:06.940Z,101436.53
2023-01-03T12:56:27.491Z,101435.53
2023-01-03T12:58:41.424Z,101436.44
2023-01-03T13:00:54.623Z,101432.22
2023-01-03T13:03:00.941Z,101425.63
2023-01-03T13:05:15.813Z,101430.75
2023-01-03T13:07:21.453Z,101428.25
2023-01-03T13:09:32.125Z,101430.00
2023-01-03T13:11:37.240Z,101417.94
2023-01-03T13:13:50.257Z,101420.31
2023-01-03T13:15:54.938Z,101417.72
2023-01-03T13:18:17.952Z,101412.09
2023-01-03T13:20:28.642Z,101417.84
2023-01-03T13:22:43.222Z,101426.59
2023-01-03T13:24:48.015Z,101415.16
2023-01-03T13:27:35.283Z,101402.72
2023-01-03T13:29:44.061Z,101411.00
2023-01-03T13:32:03.957Z,101407.34
2023-01-03T13:34:36.766Z,101396.50
2023-01-03T13:37:11.746Z,101402.19
2023-01-03T13:39:35.737Z,101397.59
2023-01-03T13:41:39.746Z,101404.00
2023-01-03T13:43:44.877Z,101400.78
2023-01-03T13:46:03.657Z,101401.75
2023-01-03T13:48:19.485Z,101409.38
2023-01-03T13:50:24.451Z,101410.38
2023-01-03T13:52:37.604Z,101402.69
2023-01-03T13:55:27.773Z,101396.41
2023-01-03T13:57:39.360Z,101393.63
2023-01-03T13:59:44.893Z,101388.47
2023-01-03T14:02:05.736Z,101391.06
2023-01-03T14:04:36.496Z,101392.84
2023-01-03T14:06:53.104Z,101397.69
2023-01-03T14:09:28.777Z,101397.22
2023-01-03T14:11:43.974Z,101396.50
2023-01-03T14:13:48.152Z,101398.53
2023-01-03T14:15:51.954Z,101403.25
2023-01-03T14:17:56.439Z,101411.19
2023-01-03T14:20:04.343Z,101402.84
2023-01-03T14:22:28.925Z,101416.28
2023-01-03T14:24:35.651Z,101415.31
2023-01-03T14:26:38.514Z,101427.94
2023-01-03T14:28:41.652Z,101424.69
2023-01-03T14:30:45.165Z,101429.25
2023-01-03T14:32:48.261Z,101428.16
2023-01-03T14:34:51.489Z,101424.22
2023-01-03T14:37:01.905Z,101417.13
2023-01-03T14:39:05.301Z,101423.41
2023-01-03T14:41:15.240Z,101421.81
2023-01-03T14:43:21.592Z,101429.81
2023-01-03T14:45:24.958Z,101421.84
2023-01-03T14:47:33.792Z,101424.59
2023-01-03T14:49:41.544Z,101421.16
2023-01-03T14:51:45.091Z,101416.81
2023-01-03T14:53:49.742Z,101418.53
2023-01-03T14:55:54.100Z,101419.84
2023-01-03T14:57:57.700Z,101413.81
2023-01-03T15:00:01.412Z,101413.78
2023-01-03T15:02:04.638Z,101405.66
2023-01-03T15:04:08.035Z,101404.78
2023-01-03T15:06:19.184Z,101410.22
2023-01-03T15:08:26.799Z,101417.28
2023-01-03T15:10:42.908Z,101420.94
2023-01-03T15:12:47.745Z,101419.53
2023-01-03T15:14:50.674Z,101415.97
2023-01-03T15:17:02.519Z,101421.38
2023-01-03T15:19:11.937Z,101426.91
2023-01-03T15:21:18.098Z,101436.53
2023-01-03T15:23:29.457Z,101440.09
2023-01-03T15:25:38.503Z,101437.44
2023-01-03T15:27:43.800Z,101435.91
2023-01-03T15:29:46.835Z,101441.25
2023-01-03T15:31:52.937Z,101438.56
2023-01-03T15:34:03.215Z,101449.22
2023-01-03T15:36:11.947Z,101445.53
2023-01-03T15:38:20.570Z,101445.56
2023-01-03T15:40:24.143Z,101462.31
2023-01-03T15:42:56.215Z,101457.13
2023-01-03T15:45:01.517Z,101448.25
2023-01-03T15:47:08.805Z,101462.38
2023-01-03T15:49:13.550Z,101449.22
2023-01-03T15:51:16.584Z,101447.38
2023-01-03T15:53:25.677Z,101443.22
2023-01-03T15:55:28.511Z,101452.09
2023-01-03T15:57:34.253Z,101458.06
2023-01-03T15:59:43.075Z,101450.19
2023-01-03T16:01:46.735Z,101459.03
2023-01-03T16:03:50.667Z,101447.69
2023-01-03T16:05:53.630Z,101443.22
2023-01-03T16:07:56.722Z,101444.22
2023-01-03T16:09:59.673Z,101445.13
2023-01-03T16:12:02.701Z,101451.34
2023-01-03T16:14:13.294Z,101439.03
2023-01-03T16:16:21.397Z,101441.00
2023-01-03T16:18:28.151Z,101445.38
2023-01-03T16:20:31.182Z,101437.44
2023-01-03T16:22:35.895Z,101437.66
2023-01-03T16:24:39.287Z,101442.91
2023-01-03T16:26:42.278Z,101427.97
2023-01-03T16:28:45.292Z,101424.53
2023-01-03T16:30:59.234Z,101425.66
2023-01-03T16:33:02.152Z,101419.41
2023-01-03T16:35:12.360Z,101420.50
2023-01-03T16:37:15.358Z,101414.28
2023-01-03T16:39:20.157Z,101416.13
2023-01-03T16:41:23.188Z,101414.38
2023-01-03T16:43:26.421Z,101424.94
2023-01-03T16:45:29.284Z,101417.19
2023-01-03T16:47:35.646Z,101419.84
2023-01-03T16:49:38.613Z,101422.59
2023-01-03T16:51:48.033Z,101427.91
2023-01-03T16:53:54.033Z,101439.34
2023-01-03T16:55:57.005Z,101433.25
2023-01-03T16:58:00.414Z,101440.25
2023-01-03T17:00:04.681Z,101436.97
2023-01-03T17:02:07.940Z,101437.09
2023-01-03T17:04:12.551Z,101432.66
2023-01-03T17:06:24.058Z,101435.41
2023-01-03T17:08:30.552Z,101442.34
2023-01-03T17:10:36.161Z,101443.28
2023-01-03T17:12:39.084Z,101440.63
2023-01-03T17:14:42.102Z,101432.66
2023-01-03T17:16:45.243Z,101441.44
2023-01-03T17:18:48.670Z,101434.41
2023-01-03T17:20:56.908Z,101433.56
2023-01-03T17:23:01.292Z,101428.25
2023-01-03T17:25:04.605Z,101433.66
2023-01-03T17:27:11.024Z,101428.47
2023-01-03T17:29:17.537Z,101423.16
2023-01-03T17:31:22.608Z,101429.28
2023-01-03T17:33:30.392Z,101428.59
2023-01-03T17:35:37.951Z,101432.13
2023-01-03T17:38:14.199Z,101439.09
2023-01-03T17:40:06.810Z,101427.75
2023-01-03T17:42:17.551Z,101437.41
2023-01-03T17:44:20.761Z,101434.81
2023-01-03T17:46:43.078Z,101436.59
2023-01-03T17:49:04.149Z,101436.50
2023-01-03T17:51:07.522Z,101435.81
2023-01-03T17:53:12.448Z,101429.63
2023-01-03T17:55:21.000Z,101433.94
2023-01-03T17:57:24.316Z,101435.63
2023-01-03T17:59:27.445Z,101433.91
2023-01-03T18:01:30.479Z,101437.47
2023-01-03T18:03:33.842Z,101438.38
2023-01-03T18:05:36.861Z,101427.97
2023-01-03T18:07:40.011Z,101433.25
2023-01-03T18:09:44.568Z,101427.97
2023-01-03T18:11:47.576Z,101422.78
2023-01-03T18:13:50.754Z,101427.97
2023-01-03T18:15:54.821Z,101418.38
2023-01-03T18:17:57.893Z,101427.94
2023-01-03T18:20:01.620Z,101420.94
2023-01-03T18:22:04.620Z,101423.50
2023-01-03T18:24:12.247Z,101417.50
2023-01-03T18:26:17.229Z,101417.47
2023-01-03T18:28:23.568Z,101412.19
2023-01-03T18:30:27.333Z,101422.66
2023-01-03T18:32:32.038Z,101420.84
2023-01-03T18:34:35.093Z,101412.16
2023-01-03T18:36:41.368Z,101413.09
2023-01-03T18:38:44.230Z,101413.94
2023-01-03T18:40:47.297Z,101398.97
2023-01-03T18:43:10.144Z,101400.81
2023-01-03T18:45:14.575Z,101393.75
2023-01-03T18:47:17.745Z,101392.03
2023-01-03T18:49:22.044Z,101401.63
2023-01-03T18:51:26.547Z,101405.13
2023-01-03T18:53:32.054Z,101399.97
2023-01-03T18:55:38.434Z,101394.75
2023-01-03T18:57:41.932Z,101400.78
2023-01-03T18:59:47.611Z,101396.50
2023-01-03T19:01:50.716Z,101387.66
2023-01-03T19:03:54.127Z,101387.72
2023-01-03T19:05:58.107Z,101392.13
2023-01-03T19:08:01.092Z,101378.03
2023-01-03T19:10:06.220Z,101375.50
2023-01-03T19:12:14.695Z,101371.06
2023-01-03T19:14:17.841Z,101373.66
2023-01-03T19:16:24.331Z,101371.94
2023-01-03T19:18:27.358Z,101365.03
2023-01-03T19:20:30.660Z,101358.00
2023-01-03T19:22:35.874Z,101350.19
2023-01-03T19:24:39.705Z,101351.84
2023-01-03T19:26:45.352Z,101344.81
2023-01-03T19:28:48.388Z,101336.97
2023-01-03T19:30:51.639Z,101338.75
2023-01-03T19:32:56.844Z,101333.59
2023-01-03T19:34:59.910Z,101324.75
2023-01-03T19:37:03.173Z,101314.25
2023-01-03T19:39:06.116Z,101328.25
2023-01-03T19:41:10.284Z,101314.13
2023-01-03T19:43:21.680Z,101320.31
2023-01-03T19:45:27.638Z,101303.66
2023-01-03T19:47:30.621Z,101300.94
2023-01-03T19:49:34.896Z,101300.13
2023-01-03T19:51:37.716Z,101290.44
2023-01-03T19:53:42.452Z,101298.47
2023-01-03T19:55:47.231Z,101290.56
2023-01-03T19:57:51.583Z,101290.59
2023-01-03T19:59:56.152Z,101288.19
2023-01-03T20:02:24.732Z,101287.09
2023-01-03T20:04:22.800Z,101272.41
2023-01-03T20:06:27.311Z,101281.91
2023-01-03T20:08:30.286Z,101279.47
2023-01-03T20:10:35.344Z,101277.59
2023-01-03T20:12:38.263Z,101275.81
2023-01-03T20:14:41.646Z,101266.22
2023-01-03T20:16:44.571Z,101268.94
2023-01-03T20:18:48.592Z,101271.56
2023-01-03T20:20:52.066Z,101281.91
2023-01-03T20:23:06.461Z,101282.88
2023-01-03T20:25:24.430Z,101294.19
2023-01-03T20:27:27.727Z,101274.03
2023-01-03T20:29:30.790Z,101272.19
2023-01-03T20:31:34.032Z,101265.25
2023-01-03T20:33:37.499Z,101266.91
2023-01-03T20:38:06.375Z,101287.94
2023-01-03T20:40:16.499Z,101287.09
2023-01-03T20:42:23.006Z,101270.47
2023-01-03T20:44:25.980Z,101278.47
2023-01-03T20:46:29.579Z,101274.06
2023-01-03T20:48:32.774Z,101282.75
2023-01-03T20:50:35.708Z,101271.34
2023-01-03T20:52:38.898Z,101264.41
2023-01-03T20:54:43.317Z,101253.78
2023-01-03T20:56:46.938Z,101249.34
2023-01-03T20:58:49.888Z,101242.34
2023-01-03T21:00:59.956Z,101225.75
2023-01-03T21:03:07.131Z,101225.78
2023-01-03T21:05:10.442Z,101212.56
2023-01-03T21:07:26.244Z,101213.47
2023-01-03T21:09:28.207Z,101194.94
2023-01-03T21:11:33.801Z,101205.59
2023-01-03T21:13:37.354Z,101201.25
2023-01-03T21:15:40.233Z,101211.72
2023-01-03T21:17:50.559Z,101215.28
2023-01-03T21:19:53.914Z,101190.72
2023-01-03T21:21:58.335Z,101203.94
2023-01-03T21:24:01.718Z,101210.91
2023-01-03T21:26:04.698Z,101199.47
2023-01-03T21:28:11.348Z,101204.91
2023-01-03T21:30:14.996Z,101190.06
2023-01-03T21:32:18.096Z,101193.50
2023-01-03T21:34:22.423Z,101196.19
2023-01-03T21:36:28.533Z,101200.53
2023-01-03T21:38:31.432Z,101205.78
2023-01-03T21:40:34.331Z,101189.91
2023-01-03T21:42:59.942Z,101198.72
2023-01-03T21:45:12.817Z,101197.78
2023-01-03T21:47:15.684Z,101207.50
2023-01-03T21:49:18.564Z,101206.69
2023-01-03T21:51:35.055Z,101204.06
2023-01-03T21:53:40.732Z,101192.75
2023-01-03T21:55:43.715Z,101193.69
2023-01-03T21:57:46.572Z,101206.81
2023-01-03T21:59:51.100Z,101189.19
2023-01-03T22:02:13.044Z,101190.06
2023-01-03T22:04:19.543Z,101172.53
2023-01-03T22:06:22.454Z,101181.34
2023-01-03T22:08:26.807Z,101205.84
2023-01-03T22:10:30.362Z,101169.91
2023-01-03T22:12:33.362Z,101177.66
2023-01-03T22:14:36.242Z,101168.22
2023-01-03T22:16:40.035Z,101162.81
2023-01-03T22:18:44.384Z,101151.59
2023-01-03T22:20:49.467Z,101155.94
2023-01-03T22:22:52.894Z,101143.69
2023-01-03T22:24:56.010Z,101138.34
2023-01-03T22:26:58.929Z,101138.38
2023-01-03T22:29:01.795Z,101134.84
2023-01-03T22:31:11.543Z,101137.59
2023-01-03T22:33:14.404Z,101139.22
2023-01-03T22:35:19.873Z,101143.63
2023-01-03T22:37:23.070Z,101133.97
2023-01-03T22:39:26.128Z,101131.50
2023-01-03T22:41:28.957Z,101134.06
2023-01-03T22:43:32.413Z,101128.75
2023-01-03T22:45:35.536Z,101128.75
2023-01-03T22:47:39.067Z,101148.06
2023-01-03T22:49:42.481Z,101126.16
2023-01-03T22:51:46.723Z,101128.78
2023-01-03T22:53:50.675Z,101120.03
2023-01-03T22:55:53.576Z,101121.69
2023-01-03T22:57:56.566Z,101117.41
2023-01-03T22:59:59.383Z,101129.47
2023-01-03T23:02:03.140Z,101098.91
2023-01-03T23:04:06.774Z,101104.97
2023-01-03T23:06:11.036Z,101100.66
2023-01-03T23:08:15.346Z,101091.00
2023-01-03T23:10:18.331Z,101117.22
2023-01-03T23:12:38.548Z,101097.88
2023-01-03T23:14:41.435Z,101074.16
2023-01-03T23:16:45.362Z,101089.22
2023-01-03T23:18:48.361Z,101078.53
2023-01-03T23:20:51.233Z,101075.13
2023-01-03T23:22:59.372Z,101090.00
2023-01-03T23:25:04.002Z,101066.25
2023-01-03T23:27:06.950Z,101057.41
2023-01-03T23:29:10.413Z,101049.66
2023-01-03T23:31:13.674Z,101050.47
2023-01-03T23:33:16.840Z,101039.00
2023-01-03T23:35:19.657Z,101047.81
2023-01-03T23:37:23.062Z,101039.97
2023-01-03T23:39:26.027Z,101048.72
2023-01-03T23:41:30.235Z,101023.28
2023-01-03T23:43:33.283Z,101014.28
2023-01-03T23:45:36.468Z,101011.75
2023-01-03T23:47:39.497Z,101003.06
2023-01-03T23:49:42.554Z,101016.25
2023-01-03T23:51:48.691Z,100999.75
2023-01-03T23:53:52.776Z,101005.81
2023-01-03T23:55:55.923Z,101000.41
2023-01-03T23:58:00.211Z,100992.72
